Wetterdaten: aktuell Mittwoch, 28.07.2021 21:55
Datum Zeit Innen Temp. A. Schlaf Luftf.innen Feuchte A. Feuchte 2 Luftdruck Regen Wind
28.07.2021 21:55 26,7 C 24,9 C 25,3 C 55 % 58 % 61 % 1010,4 hPa 0,0 mm 1,1 km/h
28.07.2021 20:55 27,2 C 27,4 C 25,1 C 55 % 53 % 61 % 1009,0 hPa 0,0 mm 5,2 km/h
28.07.2021 19:55 27,2 C 29,9 C 25,0 C 59 % 47 % 61 % 1007,6 hPa 0,0 mm 0,8 km/h
28.07.2021 18:55 27,0 C 30,8 C 25,0 C 59 % 46 % 61 % 1006,5 hPa 0,0 mm 3,0 km/h
28.07.2021 17:55 26,9 C 32,0 C 24,9 C 59 % 42 % 61 % 1006,3 hPa 0,0 mm 5,8 km/h
28.07.2021 16:55 26,8 C 32,8 C 24,8 C 59 % 38 % 61 % 1006,2 hPa 0,0 mm 10,0 km/h
28.07.2021 15:55 26,8 C 33,5 C 24,8 C 59 % 39 % 61 % 1007,2 hPa 0,0 mm 7,7 km/h
28.07.2021 14:55 26,7 C 34,0 C 24,7 C 59 % 33 % 61 % 1007,1 hPa 0,0 mm 7,7 km/h
28.07.2021 13:55 26,6 C 33,0 C 24,6 C 59 % 40 % 61 % 1008,3 hPa 0,0 mm 5,2 km/h
28.07.2021 12:55 26,4 C 33,2 C 24,6 C 57 % 38 % 62 % 1008,3 hPa 0,0 mm 3,8 km/h
28.07.2021 11:55 26,4 C 31,3 C 24,5 C 57 % 41 % 62 % 1009,5 hPa 0,0 mm 3,0 km/h
28.07.2021 10:55 26,2 C 31,2 C 24,4 C 58 % 43 % 62 % 1009,6 hPa 0,0 mm 2,5 km/h
28.07.2021 09:55 26,1 C 28,7 C 24,3 C 59 % 49 % 62 % 1009,9 hPa 0,0 mm 3,6 km/h
28.07.2021 08:55 25,7 C 24,9 C 24,1 C 59 % 64 % 62 % 1011,4 hPa 0,0 mm 0,2 km/h
28.07.2021 07:55 25,4 C 21,8 C 23,8 C 59 % 71 % 62 % 1011,8 hPa 0,0 mm 0,0 km/h
28.07.2021 06:55 25,0 C 19,6 C 23,3 C 60 % 80 % 62 % 1012,1 hPa 0,0 mm 0,0 km/h
28.07.2021 05:55 25,0 C 19,6 C 23,4 C 58 % 75 % 62 % 1012,1 hPa 0,0 mm 0,0 km/h
28.07.2021 04:55 25,2 C 20,0 C 23,6 C 60 % 78 % 63 % 1012,1 hPa 0,0 mm 0,0 km/h
28.07.2021 03:55 25,3 C 19,9 C 23,8 C 62 % 82 % 64 % 1011,1 hPa 0,0 mm 0,0 km/h
28.07.2021 02:55 25,5 C 20,0 C 23,7 C 61 % 81 % 63 % 1012,1 hPa 0,0 mm 0,0 km/h
28.07.2021 01:55 25,6 C 19,5 C 23,7 C 60 % 81 % 62 % 1012,2 hPa 0,0 mm 0,0 km/h
28.07.2021 00:55 25,9 C 20,4 C 24,0 C 59 % 78 % 62 % 1013,1 hPa 0,0 mm 0,0 km/h
27.07.2021 23:55 26,0 C 21,5 C 24,4 C 59 % 74 % 62 % 1012,9 hPa 0,0 mm 0,0 km/h
27.07.2021 22:55 26,2 C 22,1 C 24,6 C 58 % 70 % 61 % 1012,8 hPa 0,0 mm 0,0 km/h
27.07.2021 22:00 26,6 C 22,7 C 24,8 C 57 % 67 % 61 % 1012,8 hPa 0,0 mm 0,0 km/h
_ Min-Zeit 05:30 06:10 06:30 21:05 14:25 22:00 16:40 - 22:00
Minimum _ 25,0 C 19,3 C 23,3 C 54 % 33 % 61 % 1006,2 hPa - 0,0 km/h
_ Max-Zeit 20:35 14:35 21:45 03:25 03:05 03:45 01:20 22:00 10:35
Maximum _ 27,4 C 34,3 C 25,3 C 62 % 82 % 64 % 1013,2 hPa 0,0 mm 32,7 km/h
N
Durchschnitt _ 26,2 C 26,0 C 24,4 C 59 % 59 % 62 % 1010,2 hPa #0,0 mm 2,8 km/h